createdAt,value
2023-10-18T00:01:02.908Z,79.27
2023-10-18T00:04:05.018Z,79.47
2023-10-18T00:07:07.219Z,78.66
2023-10-18T00:10:09.790Z,77.64
2023-10-18T00:16:15.104Z,78.75
2023-10-18T00:19:16.969Z,78.47
2023-10-18T00:22:18.943Z,78.83
2023-10-18T00:25:23.741Z,79.83
2023-10-18T00:28:25.528Z,79.22
2023-10-18T00:31:28.695Z,79.88
2023-10-18T00:34:31.058Z,79.62
2023-10-18T00:37:33.069Z,79.86
2023-10-18T00:40:35.123Z,79.82
2023-10-18T00:43:38.161Z,80.81
2023-10-18T00:46:40.545Z,80.91
2023-10-18T00:49:43.039Z,80.25
2023-10-18T00:52:45.743Z,80.96
2023-10-18T00:55:54.590Z,81.30
2023-10-18T00:58:59.839Z,80.56
2023-10-18T01:02:08.190Z,79.93
2023-10-18T01:05:13.381Z,79.90
2023-10-18T01:08:15.826Z,79.92
2023-10-18T01:11:28.979Z,79.40
2023-10-18T01:14:32.566Z,79.79
2023-10-18T01:17:44.249Z,80.21
2023-10-18T01:20:47.497Z,81.34
2023-10-18T01:23:55.869Z,81.45
2023-10-18T01:26:58.618Z,81.68
2023-10-18T01:30:00.467Z,80.66
2023-10-18T01:33:02.754Z,79.90
2023-10-18T01:36:06.137Z,80.08
2023-10-18T01:39:21.717Z,79.25
2023-10-18T01:42:24.363Z,79.68
2023-10-18T01:45:40.032Z,79.84
2023-10-18T01:48:42.086Z,80.60
2023-10-18T01:51:47.472Z,81.19
2023-10-18T01:54:49.866Z,81.22
2023-10-18T01:57:51.879Z,80.39
2023-10-18T02:00:57.756Z,81.72
2023-10-18T02:04:01.294Z,80.25
2023-10-18T02:07:03.411Z,80.51
2023-10-18T02:10:06.770Z,79.82
2023-10-18T02:13:11.811Z,80.97
2023-10-18T02:16:21.398Z,82.16
2023-10-18T02:19:23.371Z,80.92
2023-10-18T02:22:25.236Z,81.44
2023-10-18T02:25:48.070Z,81.25
2023-10-18T02:28:50.331Z,81.45
2023-10-18T02:31:58.537Z,82.05
2023-10-18T02:35:00.458Z,81.37
2023-10-18T02:38:09.632Z,80.77
2023-10-18T02:41:18.362Z,81.45
2023-10-18T02:44:23.135Z,80.31
2023-10-18T02:47:24.985Z,81.77
2023-10-18T02:50:27.043Z,82.59
2023-10-18T02:53:28.800Z,83.05
2023-10-18T02:56:34.520Z,82.06
2023-10-18T02:59:36.500Z,80.98
2023-10-18T03:02:39.737Z,81.35
2023-10-18T03:05:42.547Z,82.45
2023-10-18T03:08:50.114Z,82.15
2023-10-18T03:11:54.711Z,82.01
2023-10-18T03:14:56.828Z,82.01
2023-10-18T03:18:01.996Z,81.32
2023-10-18T03:21:10.043Z,80.66
2023-10-18T03:24:13.717Z,81.40
2023-10-18T03:27:15.819Z,81.78
2023-10-18T03:30:24.492Z,82.24
2023-10-18T03:33:29.478Z,82.18
2023-10-18T03:36:35.053Z,81.56
2023-10-18T03:39:36.815Z,81.95
2023-10-18T03:42:40.324Z,81.07
2023-10-18T03:46:08.563Z,81.03
2023-10-18T03:49:11.654Z,81.98
2023-10-18T03:52:13.457Z,82.00
2023-10-18T03:55:18.870Z,82.25
2023-10-18T03:58:24.006Z,81.02
2023-10-18T04:01:28.011Z,81.59
2023-10-18T04:04:35.945Z,80.80
2023-10-18T04:07:37.934Z,80.37
2023-10-18T04:10:41.805Z,81.19
2023-10-18T04:13:43.577Z,81.05
2023-10-18T04:16:48.437Z,82.60
2023-10-18T04:19:50.340Z,81.71
2023-10-18T04:22:52.615Z,82.44
2023-10-18T04:25:59.011Z,81.55
2023-10-18T04:29:05.408Z,81.40
2023-10-18T04:32:17.106Z,82.53
2023-10-18T04:35:26.865Z,82.26
2023-10-18T04:38:31.679Z,82.98
2023-10-18T04:41:33.617Z,82.26
2023-10-18T04:44:36.432Z,81.32
2023-10-18T04:47:41.436Z,82.32
2023-10-18T04:50:52.125Z,81.42
2023-10-18T04:54:17.097Z,81.61
2023-10-18T04:57:23.410Z,81.71
2023-10-18T05:00:51.985Z,81.27
2023-10-18T05:03:54.187Z,83.47
2023-10-18T05:06:57.768Z,81.96
2023-10-18T05:10:06.279Z,83.35
2023-10-18T05:13:26.681Z,83.31
2023-10-18T05:16:28.608Z,84.06
2023-10-18T05:19:32.431Z,83.76
2023-10-18T05:22:42.507Z,83.54
2023-10-18T05:25:47.247Z,82.84
2023-10-18T05:28:51.018Z,82.65
2023-10-18T05:32:38.296Z,81.53
2023-10-18T05:35:49.767Z,82.74
2023-10-18T05:38:52.762Z,82.22
2023-10-18T05:42:02.046Z,82.87
2023-10-18T05:45:04.097Z,82.88
2023-10-18T05:48:14.076Z,83.68
2023-10-18T05:54:32.972Z,83.18
2023-10-18T05:57:35.330Z,82.50
2023-10-18T06:00:37.494Z,81.50
2023-10-18T06:03:42.686Z,81.52
2023-10-18T06:06:44.688Z,81.15
2023-10-18T06:09:48.275Z,80.14
2023-10-18T06:12:57.134Z,81.43
2023-10-18T06:16:03.450Z,81.13
2023-10-18T06:19:07.931Z,82.12
2023-10-18T06:22:29.983Z,81.52
2023-10-18T06:25:36.079Z,80.54
2023-10-18T06:28:39.072Z,81.77
2023-10-18T06:31:48.256Z,81.71
2023-10-18T06:34:57.095Z,81.41
2023-10-18T06:38:03.259Z,82.45
2023-10-18T06:41:12.895Z,84.19
2023-10-18T06:44:14.721Z,84.39
2023-10-18T06:47:16.623Z,84.88
2023-10-18T06:50:28.275Z,83.79
2023-10-18T06:53:30.664Z,85.91
2023-10-18T06:56:40.477Z,86.62
2023-10-18T06:59:48.533Z,86.29
2023-10-18T07:02:51.760Z,84.43
2023-10-18T07:05:54.474Z,83.52
2023-10-18T07:08:57.408Z,83.83
2023-10-18T07:12:04.661Z,83.60
2023-10-18T07:15:10.753Z,83.23
2023-10-18T07:18:15.452Z,81.45
2023-10-18T07:21:20.332Z,79.70
2023-10-18T07:24:22.763Z,79.57
2023-10-18T07:27:30.786Z,78.50
2023-10-18T07:30:41.664Z,76.32
2023-10-18T07:33:45.242Z,75.96
2023-10-18T07:36:47.741Z,75.22
2023-10-18T07:40:01.254Z,74.77
2023-10-18T07:43:13.792Z,73.54
2023-10-18T07:46:18.489Z,72.26
2023-10-18T07:49:20.582Z,71.66
2023-10-18T07:52:23.150Z,71.72
2023-10-18T07:55:25.626Z,69.24
2023-10-18T07:58:27.693Z,69.31
2023-10-18T08:01:48.340Z,69.04
2023-10-18T08:04:52.192Z,67.41
2023-10-18T08:07:54.187Z,67.17
2023-10-18T08:10:58.472Z,67.92
2023-10-18T08:14:00.456Z,65.78
2023-10-18T08:17:10.444Z,64.87
2023-10-18T08:20:39.726Z,62.04
2023-10-18T08:23:41.911Z,63.47
2023-10-18T08:26:53.078Z,61.62
2023-10-18T08:29:56.945Z,61.80
2023-10-18T08:32:59.891Z,61.03
2023-10-18T08:36:08.404Z,58.47
2023-10-18T08:39:10.539Z,58.63
2023-10-18T08:42:15.527Z,56.22
2023-10-18T08:45:24.395Z,56.64
2023-10-18T08:48:30.019Z,55.71
2023-10-18T08:51:32.053Z,55.69
2023-10-18T08:54:35.950Z,56.63
2023-10-18T08:57:37.947Z,54.28
2023-10-18T09:00:40.490Z,52.41
2023-10-18T09:03:42.336Z,53.97
2023-10-18T09:06:44.433Z,52.44
2023-10-18T09:09:55.795Z,51.48
2023-10-18T09:13:01.904Z,47.86
2023-10-18T09:16:06.159Z,50.92
2023-10-18T09:19:11.138Z,49.07
2023-10-18T09:22:13.702Z,48.73
2023-10-18T09:25:15.602Z,49.99
2023-10-18T09:28:38.200Z,49.14
2023-10-18T09:31:55.935Z,48.75
2023-10-18T09:35:05.134Z,47.57
2023-10-18T09:38:09.995Z,45.20
2023-10-18T09:41:11.816Z,45.26
2023-10-18T09:44:15.185Z,44.12
2023-10-18T09:47:19.761Z,42.05
2023-10-18T09:50:25.233Z,45.16
2023-10-18T09:53:27.633Z,46.00
2023-10-18T09:56:38.622Z,42.88
2023-10-18T09:59:48.459Z,41.03
2023-10-18T10:02:54.218Z,40.97
2023-10-18T10:05:58.910Z,41.65
2023-10-18T10:09:14.196Z,40.68
2023-10-18T10:12:17.366Z,38.19
2023-10-18T10:15:19.461Z,35.18
2023-10-18T10:18:38.944Z,34.74
2023-10-18T10:21:43.632Z,34.17
2023-10-18T10:24:56.373Z,33.59
2023-10-18T10:29:01.810Z,32.24
2023-10-18T10:32:06.829Z,29.57
2023-10-18T10:35:16.707Z,30.52
2023-10-18T10:38:22.599Z,32.03
2023-10-18T10:41:32.234Z,28.52
2023-10-18T10:44:37.559Z,27.12
2023-10-18T10:47:46.015Z,26.21
2023-10-18T10:51:09.684Z,27.53
2023-10-18T10:54:12.852Z,24.69
2023-10-18T10:57:16.879Z,25.84
2023-10-18T11:00:38.646Z,23.18
2023-10-18T11:03:54.773Z,23.87
2023-10-18T11:07:10.312Z,24.36
2023-10-18T11:10:18.641Z,22.53
2023-10-18T11:13:24.325Z,20.83
2023-10-18T11:16:26.222Z,21.96
2023-10-18T11:19:31.029Z,20.19
2023-10-18T11:22:33.193Z,20.37
2023-10-18T11:25:41.946Z,20.45
2023-10-18T11:28:43.904Z,19.68
2023-10-18T11:31:46.379Z,18.80
2023-10-18T11:34:48.411Z,20.16
2023-10-18T11:37:50.252Z,18.29
2023-10-18T11:40:52.636Z,18.77
2023-10-18T11:43:54.386Z,17.11
2023-10-18T11:47:03.002Z,15.61
2023-10-18T11:50:05.126Z,15.50
2023-10-18T11:53:11.642Z,14.83
2023-10-18T11:56:14.511Z,14.94
2023-10-18T11:59:16.316Z,14.89
2023-10-18T12:02:18.153Z,14.63
2023-10-18T12:05:25.254Z,13.50
2023-10-18T12:08:36.660Z,14.18
2023-10-18T12:11:41.160Z,15.17
2023-10-18T12:14:43.836Z,15.80
2023-10-18T12:17:47.628Z,17.82
2023-10-18T12:20:52.895Z,19.29
2023-10-18T12:23:57.606Z,18.46
2023-10-18T12:27:00.308Z,19.65
2023-10-18T12:30:32.004Z,19.85
2023-10-18T12:33:35.472Z,19.51
2023-10-18T12:36:40.373Z,19.74
2023-10-18T12:39:47.534Z,20.26
2023-10-18T12:42:49.371Z,20.18
2023-10-18T12:45:54.403Z,19.64
2023-10-18T12:48:58.631Z,20.37
2023-10-18T12:52:03.414Z,19.90
2023-10-18T12:55:24.640Z,20.31
2023-10-18T12:58:30.401Z,20.48
2023-10-18T13:01:34.319Z,20.99
2023-10-18T13:04:39.759Z,22.27
2023-10-18T13:07:44.554Z,22.73
2023-10-18T13:11:00.251Z,22.63
2023-10-18T13:14:06.603Z,22.22
2023-10-18T13:17:12.206Z,22.29
2023-10-18T13:20:17.051Z,22.99
2023-10-18T13:23:20.424Z,24.35
2023-10-18T13:26:28.071Z,23.86
2023-10-18T13:29:30.310Z,24.86
2023-10-18T13:32:34.099Z,24.71
2023-10-18T13:35:36.081Z,24.87
2023-10-18T13:38:45.572Z,24.48
2023-10-18T13:41:48.115Z,23.86
2023-10-18T13:44:50.949Z,24.17
2023-10-18T13:47:52.911Z,25.34
2023-10-18T13:50:59.318Z,25.55
2023-10-18T13:54:02.462Z,25.21
2023-10-18T13:57:05.844Z,25.50
2023-10-18T14:00:08.389Z,26.97
2023-10-18T14:03:10.309Z,27.30
2023-10-18T14:06:13.005Z,25.83
2023-10-18T14:09:15.020Z,26.95
2023-10-18T14:12:16.952Z,26.93
2023-10-18T14:15:20.918Z,27.07
2023-10-18T14:18:26.662Z,27.64
2023-10-18T14:21:31.035Z,28.20
2023-10-18T14:24:33.246Z,29.14
2023-10-18T14:27:36.593Z,28.99
2023-10-18T14:30:38.433Z,28.77
2023-10-18T14:33:57.504Z,30.05
2023-10-18T14:37:03.147Z,31.39
2023-10-18T14:40:11.507Z,30.82
2023-10-18T14:43:14.126Z,30.77
2023-10-18T14:46:23.105Z,31.56
2023-10-18T14:49:24.910Z,31.76
2023-10-18T14:52:28.098Z,34.57
2023-10-18T14:55:29.917Z,34.16
2023-10-18T14:58:33.039Z,32.29
2023-10-18T15:01:36.073Z,33.01
2023-10-18T15:04:37.843Z,36.25
2023-10-18T15:07:39.632Z,37.25
2023-10-18T15:10:46.026Z,39.09
2023-10-18T15:13:49.754Z,39.26
2023-10-18T15:16:51.940Z,39.13
2023-10-18T15:19:54.083Z,39.54
2023-10-18T15:22:58.586Z,40.94
2023-10-18T15:26:04.350Z,41.48
2023-10-18T15:29:09.749Z,41.45
2023-10-18T15:32:15.860Z,42.20
2023-10-18T15:35:18.603Z,43.88
2023-10-18T15:38:20.571Z,44.03
2023-10-18T15:41:24.350Z,43.81
2023-10-18T15:44:26.239Z,46.71
2023-10-18T15:47:28.360Z,47.23
2023-10-18T15:50:31.482Z,48.13
2023-10-18T15:53:38.854Z,47.12
2023-10-18T15:56:47.197Z,48.68
2023-10-18T15:59:50.027Z,48.85
2023-10-18T16:02:52.388Z,50.15
2023-10-18T16:05:54.309Z,52.09
2023-10-18T16:08:56.110Z,49.23
2023-10-18T16:11:59.876Z,50.08
2023-10-18T16:15:01.891Z,51.91
2023-10-18T16:18:04.933Z,52.63
2023-10-18T16:21:11.976Z,52.79
2023-10-18T16:24:14.207Z,53.02
2023-10-18T16:27:17.796Z,53.49
2023-10-18T16:30:19.642Z,54.23
2023-10-18T16:33:23.167Z,54.65
2023-10-18T16:36:25.682Z,54.46
2023-10-18T16:39:29.202Z,54.66
2023-10-18T16:42:31.299Z,55.54
2023-10-18T16:45:36.860Z,55.51
2023-10-18T16:48:40.481Z,56.42
2023-10-18T16:51:43.578Z,58.21
2023-10-18T16:54:45.375Z,57.65
2023-10-18T16:57:47.327Z,56.04
2023-10-18T17:00:56.216Z,58.29
2023-10-18T17:03:58.211Z,59.92
2023-10-18T17:07:00.106Z,59.10
2023-10-18T17:10:02.080Z,60.11
2023-10-18T17:13:05.072Z,61.86
2023-10-18T17:16:07.732Z,62.23
2023-10-18T17:19:09.547Z,60.05
2023-10-18T17:22:11.999Z,62.20
2023-10-18T17:25:18.241Z,63.92
2023-10-18T17:28:20.145Z,63.54
2023-10-18T17:31:22.426Z,63.06
2023-10-18T17:34:24.300Z,64.01
2023-10-18T17:37:26.090Z,63.19
2023-10-18T17:40:27.825Z,65.34
2023-10-18T17:43:29.661Z,65.57
2023-10-18T17:46:31.686Z,66.08
2023-10-18T17:49:33.435Z,65.43
2023-10-18T17:52:37.271Z,64.93
2023-10-18T17:55:38.997Z,65.37
2023-10-18T17:58:42.687Z,66.54
2023-10-18T18:01:46.501Z,66.17
2023-10-18T18:04:50.392Z,66.26
2023-10-18T18:07:54.306Z,67.42
2023-10-18T18:10:56.161Z,68.46
2023-10-18T18:13:59.272Z,68.63
2023-10-18T18:17:01.087Z,68.64
2023-10-18T18:20:09.410Z,67.12
2023-10-18T18:23:11.942Z,67.25
2023-10-18T18:26:18.119Z,69.12
2023-10-18T18:29:20.156Z,69.12
2023-10-18T18:32:22.380Z,69.10
2023-10-18T18:35:24.503Z,70.04
2023-10-18T18:38:26.340Z,70.14
2023-10-18T18:41:28.627Z,70.04
2023-10-18T18:44:30.648Z,69.53
2023-10-18T18:47:32.863Z,69.63
2023-10-18T18:50:36.443Z,70.44
2023-10-18T18:53:38.838Z,70.66
2023-10-18T18:56:41.794Z,71.41
2023-10-18T18:59:43.664Z,70.51
2023-10-18T19:02:51.092Z,71.11
2023-10-18T19:05:53.580Z,70.50
2023-10-18T19:08:55.618Z,71.97
2023-10-18T19:11:57.456Z,71.80
2023-10-18T19:15:00.340Z,72.49
2023-10-18T19:18:02.277Z,71.99
2023-10-18T19:21:10.591Z,71.93
2023-10-18T19:24:12.478Z,70.70
2023-10-18T19:27:14.284Z,72.40
2023-10-18T19:30:18.620Z,72.91
2023-10-18T19:33:20.825Z,72.67
2023-10-18T19:36:22.707Z,73.27
2023-10-18T19:39:28.956Z,73.43
2023-10-18T19:42:31.751Z,72.76
2023-10-18T19:45:33.677Z,74.47
2023-10-18T19:48:35.480Z,74.00
2023-10-18T19:51:37.270Z,73.83
2023-10-18T19:54:39.204Z,75.95
2023-10-18T19:57:41.178Z,73.67
2023-10-18T20:00:43.087Z,73.76
2023-10-18T20:03:45.031Z,74.28
2023-10-18T20:06:46.815Z,74.79
2023-10-18T20:09:48.603Z,73.21
2023-10-18T20:12:50.408Z,75.51
2023-10-18T20:15:53.199Z,75.75
2023-10-18T20:18:54.987Z,75.40
2023-10-18T20:21:56.785Z,75.09
2023-10-18T20:24:58.559Z,75.01
2023-10-18T20:28:00.424Z,75.33
2023-10-18T20:31:03.249Z,74.30
2023-10-18T20:34:05.082Z,76.22
2023-10-18T20:37:07.398Z,75.59
2023-10-18T20:40:11.172Z,75.22
2023-10-18T20:43:13.074Z,75.09
2023-10-18T20:46:17.602Z,77.03
2023-10-18T20:49:21.690Z,74.80
2023-10-18T20:52:32.394Z,75.96
2023-10-18T20:55:34.740Z,75.68
2023-10-18T20:58:36.726Z,75.60
2023-10-18T21:01:41.990Z,76.71
2023-10-18T21:04:49.187Z,76.73
2023-10-18T21:07:51.274Z,76.74
2023-10-18T21:10:53.066Z,76.60
2023-10-18T21:13:55.442Z,76.67
2023-10-18T21:16:57.416Z,77.10
2023-10-18T21:19:59.344Z,75.67
2023-10-18T21:23:01.876Z,77.32
2023-10-18T21:26:13.477Z,76.61
2023-10-18T21:29:15.574Z,78.45
2023-10-18T21:32:17.951Z,77.92
2023-10-18T21:35:22.925Z,78.26
2023-10-18T21:38:24.729Z,77.23
2023-10-18T21:41:27.006Z,77.71
2023-10-18T21:44:28.988Z,76.49
2023-10-18T21:47:31.025Z,76.00
2023-10-18T21:50:32.843Z,76.79
2023-10-18T21:53:34.640Z,78.17
2023-10-18T21:56:36.538Z,79.09
2023-10-18T21:59:38.340Z,79.18
2023-10-18T22:02:41.845Z,79.34
2023-10-18T22:05:46.443Z,78.36
2023-10-18T22:08:48.242Z,79.85
2023-10-18T22:11:50.374Z,81.30
2023-10-18T22:14:53.489Z,81.79
2023-10-18T22:17:55.308Z,79.18
2023-10-18T22:21:01.123Z,80.06
2023-10-18T22:24:04.534Z,80.60
2023-10-18T22:27:06.940Z,80.98
2023-10-18T22:30:17.167Z,81.21
2023-10-18T22:33:22.488Z,79.62
2023-10-18T22:36:24.559Z,79.71
2023-10-18T22:39:34.875Z,78.94
2023-10-18T22:42:40.762Z,80.34
2023-10-18T22:45:43.034Z,82.09
2023-10-18T22:48:52.014Z,83.01
2023-10-18T22:52:00.255Z,81.84
2023-10-18T22:55:20.421Z,83.13
2023-10-18T22:58:27.103Z,82.90
2023-10-18T23:01:29.196Z,81.24
2023-10-18T23:04:37.649Z,80.38
2023-10-18T23:07:40.093Z,81.06
2023-10-18T23:10:51.421Z,79.99
2023-10-18T23:13:56.347Z,80.04
2023-10-18T23:17:01.219Z,78.02
2023-10-18T23:20:11.700Z,79.00
2023-10-18T23:23:13.517Z,78.27
2023-10-18T23:26:33.841Z,78.46
2023-10-18T23:29:41.567Z,79.27
2023-10-18T23:32:55.299Z,78.14
2023-10-18T23:35:58.788Z,74.92
2023-10-18T23:39:10.243Z,75.75
2023-10-18T23:42:26.758Z,77.40
2023-10-18T23:45:33.191Z,77.54
2023-10-18T23:49:04.199Z,77.39
2023-10-18T23:52:08.702Z,80.82
2023-10-18T23:55:15.038Z,82.75
2023-10-18T23:58:16.938Z,81.08
